St. Elmo — WDG2405 — position and weather

sailwx.info

Track history (hours):
 
Tides and Currents Weather Stations Pressure Air Temp Water Temp Dewpoint Dewpoint Depression Visibility Wind Speed Wind Dir Waves Ship Positions

St. Elmo

Owner: Marquette Transportation Company Gulf-Inland, LLC, Jefferson, LA. More information available from US FCC via Universal Licensing System and Coast Guard Vessel Documentation Center.

Last reported at 2016-May-05 06:27 UTC. Time now 2016-May-05 06:41 UTC.
Position N 29°42' W 095°01'.

; draft 3.2 m.

MMSI: 367515330.

Date/timePositionNaut miles runAvg speedWind from/ knotsBaromVisibWave heightAir tempDewpointWater temp
2016-May-05 06:27N 29°42' W 095°01'5 6.0
2016-May-05 05:33N 29°38' W 094°58'7 7.4
2016-May-05 04:33N 29°31' W 094°53'  
2016-May-03 00:07N 29°34' W 094°55'4 6.4
2016-May-02 23:33N 29°37' W 094°58'3 3.3
2016-May-02 22:33N 29°37' W 095°01'0 0.3
2016-May-02 21:32N 29°36' W 095°01'0 0.0
2016-May-02 20:31N 29°36' W 095°01'0 0.0
2016-May-02 19:33N 29°36' W 095°01'0 0.0
2016-May-02 18:33N 29°36' W 095°01'0 0.0
2016-May-02 17:31N 29°36' W 095°01'0 0.0
2016-May-02 16:31N 29°36' W 095°01'0 0.0
2016-May-02 15:30N 29°36' W 095°01'0 0.0
2016-May-02 14:33N 29°36' W 095°01'0 0.0
2016-May-01 21:34N 29°36' W 095°01'0 0.0
2016-May-01 20:33N 29°36' W 095°01'0 0.0
2016-May-01 19:33N 29°36' W 095°01'0 0.0
2016-May-01 18:33N 29°36' W 095°01'0 0.0
2016-May-01 17:34N 29°36' W 095°01'0 0.1
2016-May-01 16:33N 29°37' W 095°01'3 3.2
2016-May-01 15:33N 29°38' W 094°58'5 4.7
2016-May-01 14:33N 29°42' W 095°00'4 4.2
2016-May-01 13:33N 29°45' W 095°04'1 0.3
2016-May-01 09:19N 29°46' W 095°05'3 4.0
2016-May-01 08:29N 29°44' W 095°02'3 3.7
2016-May-01 07:34N 29°41' W 094°59'4 4.0
2016-May-01 06:33N 29°37' W 094°57'4 4.3
2016-May-01 05:34N 29°34' W 094°55'4 4.3
2016-May-01 04:32N 29°30' W 094°52'  
Track history (hours):
 
Tides and Currents Weather Stations Pressure Air Temp Water Temp Dewpoint Dewpoint Depression Visibility Wind Speed Wind Dir Waves Ship Positions

St. Elmo

Owner: Marquette Transportation Company Gulf-Inland, LLC, Jefferson, LA. More information available from US FCC via Universal Licensing System and Coast Guard Vessel Documentation Center.

Last reported at 2016-May-05 06:27 UTC. Time now 2016-May-05 06:41 UTC.
Position N 29°42' W 095°01'.

; draft 3.2 m.

MMSI: 367515330.

Date/timePositionNaut miles runAvg speedWind from/ knotsBaromVisibWave heightAir tempDewpointWater temp
2016-May-05 06:27N 29°42' W 095°01'5 6.0
2016-May-05 05:33N 29°38' W 094°58'7 7.4
2016-May-05 04:33N 29°31' W 094°53'  
2016-May-03 00:07N 29°34' W 094°55'4 6.4
2016-May-02 23:33N 29°37' W 094°58'3 3.3
2016-May-02 22:33N 29°37' W 095°01'0 0.3
2016-May-02 21:32N 29°36' W 095°01'0 0.0
2016-May-02 20:31N 29°36' W 095°01'0 0.0
2016-May-02 19:33N 29°36' W 095°01'0 0.0
2016-May-02 18:33N 29°36' W 095°01'0 0.0
2016-May-02 17:31N 29°36' W 095°01'0 0.0
2016-May-02 16:31N 29°36' W 095°01'0 0.0
2016-May-02 15:30N 29°36' W 095°01'0 0.0
2016-May-02 14:33N 29°36' W 095°01'0 0.0
2016-May-01 21:34N 29°36' W 095°01'0 0.0
2016-May-01 20:33N 29°36' W 095°01'0 0.0
2016-May-01 19:33N 29°36' W 095°01'0 0.0
2016-May-01 18:33N 29°36' W 095°01'0 0.0
2016-May-01 17:34N 29°36' W 095°01'0 0.1
2016-May-01 16:33N 29°37' W 095°01'3 3.2
2016-May-01 15:33N 29°38' W 094°58'5 4.7
2016-May-01 14:33N 29°42' W 095°00'4 4.2
2016-May-01 13:33N 29°45' W 095°04'1 0.3
2016-May-01 09:19N 29°46' W 095°05'3 4.0
2016-May-01 08:29N 29°44' W 095°02'3 3.7
2016-May-01 07:34N 29°41' W 094°59'4 4.0
2016-May-01 06:33N 29°37' W 094°57'4 4.3
2016-May-01 05:34N 29°34' W 094°55'4 4.3
2016-May-01 04:32N 29°30' W 094°52'  

Dump ship's entire track history